Time;durP1;ratioP1;P1;durP2;ratioP2;P2;SDS_P1;SDS_P2;PMS_P1;PMS_P2;Temp;Humidity;BMP_temperature;BMP_pressure;BME280_temperature;BME280_humidity;BME280_pressure;Samples;Min_cycle;Max_cycle;Signal;HPM_P1;HPM_P2
2024/02/25 00:02:24;;;;;;;5.72;4.70;;;6.80;61.00;;;;;;5032718;28;20068;-80
2024/02/25 00:05:09;;;;;;;4.85;4.22;;;6.80;61.00;;;;;;5048041;28;20196;-80
2024/02/25 00:07:55;;;;;;;5.90;4.32;;;6.80;61.00;;;;;;5036017;28;20037;-80
2024/02/25 00:10:39;;;;;;;5.63;5.03;;;6.70;60.90;;;;;;5037039;28;20114;-80
2024/02/25 00:13:25;;;;;;;5.25;4.28;;;6.70;60.90;;;;;;5040586;28;20055;-78
2024/02/25 00:16:10;;;;;;;7.45;5.07;;;6.70;61.00;;;;;;5026015;28;20150;-77
2024/02/25 00:18:54;;;;;;;5.00;4.47;;;6.60;60.80;;;;;;5034136;28;20048;-78
2024/02/25 00:21:39;;;;;;;5.63;4.75;;;6.60;60.90;;;;;;5032080;28;20175;-78
2024/02/25 00:24:23;;;;;;;5.60;4.25;;;6.60;60.90;;;;;;5034842;28;20043;-78
2024/02/25 00:27:07;;;;;;;4.88;4.35;;;6.60;60.90;;;;;;5036009;28;20094;-78
2024/02/25 00:29:52;;;;;;;5.07;4.05;;;6.50;60.70;;;;;;5037088;28;20048;-78
2024/02/25 00:32:37;;;;;;;4.07;3.67;;;6.50;60.80;;;;;;5036022;28;20106;-78
2024/02/25 00:35:21;;;;;;;4.28;3.88;;;6.50;60.80;;;;;;5037735;28;20098;-78
2024/02/25 00:38:06;;;;;;;4.35;3.50;;;6.50;60.80;;;;;;5032558;28;20097;-79
2024/02/25 00:40:50;;;;;;;4.38;3.40;;;6.40;60.70;;;;;;5039471;28;20149;-79
2024/02/25 00:43:35;;;;;;;3.50;3.05;;;6.40;60.70;;;;;;5039096;28;20090;-80
2024/02/25 00:46:20;;;;;;;3.70;3.40;;;6.40;60.80;;;;;;5039603;28;20063;-79
2024/02/25 00:49:05;;;;;;;4.32;3.92;;;6.30;60.70;;;;;;5019035;28;20082;-79
2024/02/25 00:51:49;;;;;;;3.78;3.38;;;6.30;60.70;;;;;;5030778;28;20035;-79
2024/02/25 00:54:34;;;;;;;4.40;3.72;;;6.30;60.70;;;;;;5036365;28;20318;-78
2024/02/25 00:57:18;;;;;;;3.22;2.92;;;6.20;60.60;;;;;;5039919;28;20400;-79
2024/02/25 01:00:03;;;;;;;3.83;3.35;;;6.20;60.60;;;;;;5039089;28;20112;-79
2024/02/25 01:02:48;;;;;;;4.78;3.70;;;6.20;60.70;;;;;;5037039;28;20032;-79
2024/02/25 01:05:32;;;;;;;3.65;3.08;;;6.10;60.50;;;;;;5038008;28;20140;-79
2024/02/25 01:08:17;;;;;;;3.83;3.13;;;6.10;60.60;;;;;;5039736;28;20044;-78
2024/02/25 01:11:01;;;;;;;4.10;3.20;;;6.10;60.60;;;;;;5036001;28;20099;-78
2024/02/25 01:13:47;;;;;;;4.55;2.83;;;6.00;60.50;;;;;;5043897;28;20080;-78
2024/02/25 01:16:31;;;;;;;4.15;3.33;;;6.00;60.50;;;;;;5030162;28;20117;-78
2024/02/25 01:19:17;;;;;;;4.32;3.10;;;6.00;61.00;;;;;;5037302;28;20526;-78
2024/02/25 01:22:01;;;;;;;3.03;2.80;;;6.00;60.50;;;;;;5037066;28;20095;-78
2024/02/25 01:24:46;;;;;;;2.88;2.55;;;6.00;60.60;;;;;;5028938;28;20055;-78
2024/02/25 01:27:31;;;;;;;3.03;2.72;;;5.90;60.40;;;;;;5031237;28;20051;-78
2024/02/25 01:30:16;;;;;;;3.92;2.50;;;5.90;60.40;;;;;;5027811;28;20052;-78
2024/02/25 01:33:00;;;;;;;3.92;2.90;;;5.90;60.40;;;;;;5038830;28;20453;-78
2024/02/25 01:35:45;;;;;;;3.08;2.58;;;5.80;60.30;;;;;;5024437;28;20244;-78
2024/02/25 01:38:29;;;;;;;2.83;2.60;;;5.80;60.30;;;;;;5038307;28;20048;-78
2024/02/25 01:41:14;;;;;;;2.60;2.40;;;5.70;60.20;;;;;;5030806;28;20435;-78
2024/02/25 01:43:59;;;;;;;3.63;2.90;;;5.70;60.20;;;;;;5029476;28;20049;-79
2024/02/25 01:46:45;;;;;;;2.55;2.33;;;5.70;60.20;;;;;;5034783;28;20135;-78
2024/02/25 01:49:29;;;;;;;4.03;3.10;;;5.60;60.10;;;;;;5031617;28;20087;-77
2024/02/25 01:52:14;;;;;;;3.97;2.72;;;5.60;60.10;;;;;;5038982;28;20035;-78
2024/02/25 01:54:59;;;;;;;2.95;2.50;;;5.60;60.20;;;;;;5034015;28;20149;-78
2024/02/25 01:57:44;;;;;;;3.28;2.80;;;5.60;60.20;;;;;;5031082;28;20045;-78
2024/02/25 02:00:30;;;;;;;2.80;2.55;;;5.50;60.10;;;;;;5036320;28;20108;-78
2024/02/25 02:03:18;;;;;;;3.72;2.35;;;5.50;60.10;;;;;;5034875;28;20048;-78
2024/02/25 02:06:04;;;;;;;4.28;2.72;;;5.50;60.10;;;;;;5036750;28;20510;-78
2024/02/25 02:08:48;;;;;;;3.35;2.50;;;5.50;60.10;;;;;;5036260;28;20568;-78
2024/02/25 02:11:32;;;;;;;3.47;2.30;;;5.40;60.00;;;;;;5023961;28;20183;-78
2024/02/25 02:14:16;;;;;;;2.60;2.40;;;5.40;60.00;;;;;;5037706;28;20807;-78
2024/02/25 02:17:03;;;;;;;2.72;2.30;;;5.40;60.00;;;;;;5040146;28;20163;-78
2024/02/25 02:19:47;;;;;;;2.55;2.22;;;5.40;60.00;;;;;;5033099;28;20519;-79
2024/02/25 02:22:33;;;;;;;2.42;2.20;;;5.30;59.80;;;;;;5043419;28;20063;-79
2024/02/25 02:25:18;;;;;;;4.05;2.17;;;5.30;59.80;;;;;;5028899;28;20087;-79
2024/02/25 02:28:02;;;;;;;4.78;2.40;;;5.30;59.90;;;;;;5031715;28;20128;-79
2024/02/25 02:30:47;;;;;;;2.72;2.13;;;5.20;59.70;;;;;;5037019;28;20396;-79
2024/02/25 02:33:32;;;;;;;2.35;2.05;;;5.20;59.70;;;;;;5038644;28;20080;-79
2024/02/25 02:36:16;;;;;;;3.00;2.20;;;5.20;59.80;;;;;;5040224;28;20098;-79
2024/02/25 02:39:04;;;;;;;3.40;2.20;;;5.20;59.90;;;;;;5045377;28;20055;-79
2024/02/25 02:41:48;;;;;;;2.80;2.25;;;5.10;59.70;;;;;;5042881;28;20083;-79
2024/02/25 02:44:33;;;;;;;4.97;2.45;;;5.10;59.70;;;;;;5046115;28;20043;-80
2024/02/25 02:47:20;;;;;;;5.13;2.60;;;5.10;59.70;;;;;;5044211;28;20530;-78
2024/02/25 02:50:05;;;;;;;3.28;2.47;;;5.00;59.60;;;;;;5037489;28;20099;-78
2024/02/25 02:52:50;;;;;;;5.60;2.80;;;5.00;59.60;;;;;;5043499;28;20063;-78
2024/02/25 02:55:35;;;;;;;3.53;2.35;;;5.00;59.70;;;;;;5049583;28;20048;-78
2024/02/25 02:58:19;;;;;;;2.65;2.45;;;5.00;59.70;;;;;;5044554;28;20060;-79
2024/02/25 03:01:04;;;;;;;4.20;2.53;;;4.90;59.50;;;;;;5039548;28;20049;-78
2024/02/25 03:03:49;;;;;;;3.10;2.80;;;4.90;59.50;;;;;;5044153;28;20091;-78
2024/02/25 03:06:34;;;;;;;4.38;2.40;;;4.90;59.50;;;;;;5044767;28;20244;-78
2024/02/25 03:09:18;;;;;;;2.67;2.47;;;4.90;59.50;;;;;;5039252;28;20058;-78
2024/02/25 03:12:03;;;;;;;3.90;2.75;;;4.90;59.50;;;;;;5047314;28;20043;-78
2024/02/25 03:14:48;;;;;;;3.13;2.83;;;4.90;59.50;;;;;;5029221;28;20062;-78
2024/02/25 03:17:32;;;;;;;4.13;3.10;;;4.90;59.60;;;;;;5044715;28;20132;-78
2024/02/25 03:20:19;;;;;;;3.88;2.83;;;4.90;59.60;;;;;;5044215;28;20551;-78
2024/02/25 03:23:03;;;;;;;3.13;2.65;;;4.90;59.60;;;;;;5041813;28;20040;-78
2024/02/25 03:25:48;;;;;;;4.22;2.78;;;4.80;59.40;;;;;;5026938;28;20072;-79
2024/02/25 03:28:32;;;;;;;4.07;3.50;;;4.80;59.50;;;;;;5037505;28;20040;-75
2024/02/25 03:31:17;;;;;;;3.10;2.80;;;4.80;59.50;;;;;;5041112;28;20868;-74
2024/02/25 03:34:02;;;;;;;4.20;2.83;;;4.80;59.50;;;;;;5044236;28;20047;-74
2024/02/25 03:36:46;;;;;;;4.32;3.42;;;4.70;59.40;;;;;;5047188;28;20408;-75
2024/02/25 03:39:31;;;;;;;3.65;3.25;;;4.70;59.40;;;;;;5043864;28;20071;-74
2024/02/25 03:42:16;;;;;;;4.00;3.45;;;4.70;59.40;;;;;;5047524;28;20040;-74
2024/02/25 03:45:01;;;;;;;3.40;2.85;;;4.70;59.40;;;;;;5046312;28;20091;-74
2024/02/25 03:47:45;;;;;;;4.03;3.58;;;4.70;59.50;;;;;;5046164;28;20052;-75
2024/02/25 03:50:30;;;;;;;4.22;2.90;;;4.70;59.50;;;;;;5037508;28;20071;-75
2024/02/25 03:53:15;;;;;;;3.92;3.10;;;4.70;59.50;;;;;;5044128;28;20207;-76
2024/02/25 03:55:59;;;;;;;4.13;3.35;;;4.70;59.60;;;;;;5040779;28;20099;-75
2024/02/25 03:58:44;;;;;;;3.15;2.85;;;4.70;59.60;;;;;;5044524;28;20135;-75
2024/02/25 04:01:28;;;;;;;3.47;3.13;;;4.70;59.60;;;;;;5047558;28;20052;-74
2024/02/25 04:04:13;;;;;;;4.97;3.72;;;4.80;59.70;;;;;;5038671;28;20052;-74
2024/02/25 04:06:58;;;;;;;6.28;3.63;;;4.80;59.70;;;;;;5045879;28;20063;-74
2024/02/25 04:09:43;;;;;;;4.55;3.50;;;4.70;59.50;;;;;;5043629;28;20048;-75
2024/02/25 04:12:27;;;;;;;4.05;3.63;;;4.80;59.70;;;;;;5048028;28;20043;-74
2024/02/25 04:15:13;;;;;;;5.60;3.00;;;4.80;59.70;;;;;;5038515;28;20044;-75
2024/02/25 04:17:58;;;;;;;4.82;3.25;;;4.80;59.70;;;;;;5046012;28;20045;-75
2024/02/25 04:20:42;;;;;;;3.63;3.33;;;4.80;59.70;;;;;;5045974;28;20473;-75
2024/02/25 04:23:26;;;;;;;4.53;3.13;;;4.80;59.70;;;;;;5045084;28;20187;-74
2024/02/25 04:26:10;;;;;;;5.05;3.72;;;4.80;59.70;;;;;;5046384;28;20071;-73
2024/02/25 04:28:55;;;;;;;4.45;3.40;;;4.90;59.90;;;;;;5036759;28;20040;-76
2024/02/25 04:31:45;;;;;;;3.78;3.30;;;4.90;59.90;;;;;;5045014;28;20448;-76
2024/02/25 04:34:30;;;;;;;4.75;3.33;;;4.90;59.90;;;;;;5032238;28;20168;-76
2024/02/25 04:37:14;;;;;;;4.15;3.40;;;4.90;59.80;;;;;;5046382;28;20087;-76
2024/02/25 04:40:00;;;;;;;4.65;3.20;;;4.90;59.90;;;;;;5046175;28;20512;-75
2024/02/25 04:42:45;;;;;;;5.28;3.05;;;4.90;59.80;;;;;;5043525;28;20428;-76
2024/02/25 04:45:29;;;;;;;3.78;3.40;;;4.90;59.80;;;;;;5043200;28;20047;-76
2024/02/25 04:48:13;;;;;;;4.72;4.22;;;4.90;59.90;;;;;;5042684;28;20079;-76
2024/02/25 04:50:58;;;;;;;3.72;3.13;;;4.90;59.90;;;;;;5030161;28;20294;-77
2024/02/25 04:53:43;;;;;;;4.25;3.67;;;5.00;60.00;;;;;;5034882;28;20399;-76
2024/02/25 04:56:28;;;;;;;6.22;3.65;;;5.00;60.00;;;;;;5045068;28;20412;-77
2024/02/25 04:59:13;;;;;;;4.72;3.45;;;5.00;60.00;;;;;;5041513;28;20545;-77
2024/02/25 05:01:57;;;;;;;4.75;3.47;;;5.00;60.00;;;;;;5027075;28;20052;-80
2024/02/25 05:04:43;;;;;;;4.05;3.65;;;5.00;60.00;;;;;;5040976;28;20125;-78
2024/02/25 05:07:27;;;;;;;4.07;3.35;;;5.00;60.00;;;;;;5040834;28;20537;-80
2024/02/25 05:10:12;;;;;;;4.28;3.88;;;5.00;59.90;;;;;;5036034;28;20079;-80
2024/02/25 05:12:56;;;;;;;5.55;3.88;;;5.00;59.90;;;;;;5045939;28;20055;-79
2024/02/25 05:15:41;;;;;;;4.43;3.80;;;5.10;60.10;;;;;;5043815;28;20257;-80
2024/02/25 05:18:28;;;;;;;3.67;3.30;;;5.10;60.10;;;;;;5037808;28;20120;-79
2024/02/25 05:21:12;;;;;;;4.55;3.50;;;5.10;60.10;;;;;;5033996;28;20071;-79
2024/02/25 05:23:57;;;;;;;5.38;3.85;;;5.10;60.10;;;;;;5038399;28;20040;-81
2024/02/25 05:26:41;;;;;;;5.95;3.95;;;5.10;60.10;;;;;;5040539;28;20545;-80
2024/02/25 05:29:26;;;;;;;5.80;3.38;;;5.10;60.10;;;;;;5034308;28;20039;-79
2024/02/25 05:32:11;;;;;;;5.25;3.22;;;5.10;60.10;;;;;;5045988;28;20130;-79
2024/02/25 05:34:56;;;;;;;5.28;4.22;;;5.10;60.10;;;;;;5044271;28;20105;-80
2024/02/25 05:37:41;;;;;;;5.15;3.58;;;5.10;60.10;;;;;;5036940;28;20060;-82
2024/02/25 05:40:26;;;;;;;4.38;3.13;;;5.10;60.10;;;;;;5044202;28;20098;-80
2024/02/25 05:43:10;;;;;;;3.67;2.92;;;5.10;60.10;;;;;;5042755;28;20387;-81
2024/02/25 05:45:56;;;;;;;3.95;3.42;;;5.10;60.10;;;;;;5034879;28;20055;-81
2024/02/25 05:48:41;;;;;;;5.47;3.55;;;5.10;60.10;;;;;;5039110;28;20040;-81
2024/02/25 05:51:25;;;;;;;3.67;3.38;;;5.10;60.10;;;;;;5035246;28;20164;-81
2024/02/25 05:54:09;;;;;;;3.63;3.25;;;5.20;60.30;;;;;;5045606;28;20036;-81
2024/02/25 05:56:55;;;;;;;5.95;3.47;;;5.20;60.30;;;;;;5042454;28;20083;-80
2024/02/25 05:59:39;;;;;;;5.05;3.78;;;5.20;60.30;;;;;;5046153;28;20388;-81
2024/02/25 06:02:24;;;;;;;4.63;3.65;;;5.20;60.20;;;;;;5051209;28;20446;-80
2024/02/25 06:05:13;;;;;;;4.32;3.80;;;5.20;60.20;;;;;;5040198;28;20059;-80
2024/02/25 06:08:01;;;;;;;5.38;3.72;;;5.20;60.20;;;;;;5043350;28;20297;-80
2024/02/25 06:10:45;;;;;;;4.90;3.55;;;5.30;60.30;;;;;;5042673;28;20098;-79
2024/02/25 06:13:30;;;;;;;4.38;3.83;;;5.30;60.30;;;;;;5039084;28;20043;-80
2024/02/25 06:16:15;;;;;;;4.20;3.80;;;5.30;60.30;;;;;;5041871;28;20048;-80
2024/02/25 06:19:00;;;;;;;6.75;3.65;;;5.30;60.30;;;;;;5041485;28;20345;-79
2024/02/25 06:21:44;;;;;;;6.03;4.25;;;5.30;60.30;;;;;;5041360;28;20557;-80
2024/02/25 06:24:29;;;;;;;4.55;3.90;;;5.40;60.50;;;;;;5036386;28;20056;-79
2024/02/25 06:27:14;;;;;;;5.03;3.72;;;5.40;60.50;;;;;;5038893;28;20454;-79
2024/02/25 06:29:58;;;;;;;4.18;3.78;;;5.40;60.50;;;;;;5039382;28;20043;-79
2024/02/25 06:32:43;;;;;;;4.85;4.20;;;5.40;60.40;;;;;;5041688;28;20405;-79
2024/02/25 06:35:28;;;;;;;4.22;3.83;;;5.40;60.50;;;;;;5040023;28;20103;-79
2024/02/25 06:38:12;;;;;;;7.85;4.70;;;5.40;60.50;;;;;;5039947;28;20071;-79
2024/02/25 06:40:57;;;;;;;5.75;4.03;;;5.50;60.60;;;;;;5039759;28;20086;-79
2024/02/25 06:43:42;;;;;;;5.30;4.30;;;5.40;60.50;;;;;;5039128;28;20044;-80
2024/02/25 06:46:27;;;;;;;6.88;4.95;;;5.40;60.40;;;;;;5039557;28;20114;-79
2024/02/25 06:49:11;;;;;;;7.40;4.78;;;5.50;60.60;;;;;;5037599;28;20515;-79
2024/02/25 06:51:56;;;;;;;5.38;4.70;;;5.50;60.60;;;;;;5033458;28;20168;-79
2024/02/25 06:54:43;;;;;;;6.60;5.05;;;5.50;60.50;;;;;;5039740;28;20067;-79
2024/02/25 06:57:28;;;;;;;7.32;4.32;;;5.50;60.50;;;;;;5036397;28;20103;-79
2024/02/25 07:00:14;;;;;;;5.53;4.47;;;5.50;60.50;;;;;;5038488;28;20098;-80
2024/02/25 07:02:59;;;;;;;5.28;4.75;;;5.50;60.50;;;;;;5040305;28;20072;-80
2024/02/25 07:05:43;;;;;;;5.40;4.15;;;5.50;60.50;;;;;;5038333;28;20052;-80
2024/02/25 07:08:28;;;;;;;6.18;4.40;;;5.50;60.50;;;;;;5038731;28;20051;-80
2024/02/25 07:11:17;;;;;;;4.40;3.92;;;5.60;60.80;;;;;;5039444;28;20504;-80
2024/02/25 07:14:02;;;;;;;5.93;4.47;;;5.60;60.60;;;;;;5037416;28;20032;-79
2024/02/25 07:16:47;;;;;;;6.68;4.60;;;5.60;60.60;;;;;;5038508;28;20040;-80
2024/02/25 07:19:31;;;;;;;5.35;4.32;;;5.60;60.60;;;;;;5022353;28;20032;-80
2024/02/25 07:22:16;;;;;;;7.38;4.57;;;5.60;60.60;;;;;;5038483;28;20552;-79
2024/02/25 07:25:01;;;;;;;5.60;4.95;;;5.60;60.60;;;;;;5037399;28;20052;-79
2024/02/25 07:27:45;;;;;;;5.88;4.47;;;5.60;60.60;;;;;;5036460;28;20037;-78
2024/02/25 07:30:29;;;;;;;7.97;5.25;;;5.60;60.60;;;;;;5036956;28;20040;-82
2024/02/25 07:33:13;;;;;;;5.78;4.70;;;5.70;60.70;;;;;;5024697;28;20528;-80
2024/02/25 07:35:58;;;;;;;6.55;5.30;;;5.70;60.70;;;;;;5038569;28;20397;-80
2024/02/25 07:38:42;;;;;;;6.65;4.47;;;5.70;60.70;;;;;;5021463;28;20167;-80
2024/02/25 07:41:26;;;;;;;5.43;4.65;;;5.70;60.70;;;;;;5039383;28;20067;-81
2024/02/25 07:44:12;;;;;;;5.28;4.78;;;5.80;60.90;;;;;;5039489;28;20556;-80
2024/02/25 07:46:56;;;;;;;8.48;5.32;;;5.70;60.60;;;;;;5013331;28;20094;-78
2024/02/25 07:49:40;;;;;;;6.85;5.13;;;5.80;60.80;;;;;;5034131;28;20044;-78
2024/02/25 07:52:25;;;;;;;6.63;5.00;;;5.80;60.80;;;;;;5036341;28;20055;-78
2024/02/25 07:55:09;;;;;;;6.43;4.80;;;5.80;60.70;;;;;;5032256;28;20507;-78
2024/02/25 07:57:54;;;;;;;6.38;5.07;;;5.90;60.90;;;;;;5031310;28;20060;-78
2024/02/25 08:00:39;;;;;;;5.80;5.03;;;5.90;60.80;;;;;;5037025;28;20039;-78
2024/02/25 08:03:23;;;;;;;5.45;4.43;;;5.90;60.80;;;;;;5037037;28;20656;-78
2024/02/25 08:06:07;;;;;;;8.80;6.30;;;6.00;61.00;;;;;;5035431;28;20528;-78
2024/02/25 08:08:53;;;;;;;8.18;5.40;;;5.90;60.80;;;;;;5036756;28;20416;-78
2024/02/25 08:11:37;;;;;;;6.05;5.13;;;6.00;60.90;;;;;;5036891;28;20078;-79
2024/02/25 08:14:21;;;;;;;9.10;5.38;;;6.00;60.90;;;;;;5033617;28;20063;-78
2024/02/25 08:17:07;;;;;;;7.65;5.63;;;6.00;60.80;;;;;;5024207;28;20566;-78
2024/02/25 08:19:51;;;;;;;136.88;110.82;;;6.10;61.00;;;;;;5030708;28;20048;-78
2024/02/25 08:22:38;;;;;;;134.88;112.28;;;6.10;61.00;;;;;;5035398;28;20561;-78
2024/02/25 08:25:22;;;;;;;102.80;89.80;;;6.20;61.60;;;;;;5034832;28;20126;-78
2024/02/25 08:28:08;;;;;;;93.22;81.20;;;6.30;61.90;;;;;;5027286;28;20404;-78
2024/02/25 08:30:53;;;;;;;88.93;73.93;;;6.40;62.30;;;;;;5035970;28;20458;-78
2024/02/25 08:33:39;;;;;;;79.35;68.82;;;6.50;62.60;;;;;;5029266;28;20110;-79
2024/02/25 08:36:23;;;;;;;79.55;66.20;;;6.60;63.00;;;;;;5036901;28;20521;-79
2024/02/25 08:39:08;;;;;;;68.95;60.80;;;6.70;63.30;;;;;;5031181;28;20036;-78
2024/02/25 08:41:52;;;;;;;73.32;57.92;;;6.70;63.40;;;;;;5029241;28;20333;-78
2024/02/25 08:44:37;;;;;;;62.08;52.92;;;6.80;63.60;;;;;;5037221;28;20047;-79
2024/02/25 08:47:21;;;;;;;57.28;48.38;;;6.80;63.60;;;;;;5018747;28;20218;-80
2024/02/25 08:50:07;;;;;;;55.85;47.08;;;6.90;63.80;;;;;;5033539;28;20048;-79
2024/02/25 08:52:51;;;;;;;49.20;42.55;;;6.90;63.80;;;;;;5030289;28;20036;-79
2024/02/25 08:55:35;;;;;;;46.90;41.95;;;7.00;63.90;;;;;;5035062;28;20118;-78
2024/02/25 08:58:20;;;;;;;44.25;39.53;;;7.00;63.90;;;;;;5033388;28;20040;-79
2024/02/25 09:01:05;;;;;;;41.15;36.70;;;7.10;64.00;;;;;;5037742;28;20455;-79
2024/02/25 09:03:49;;;;;;;40.05;35.85;;;7.20;64.00;;;;;;5031035;28;20052;-79
2024/02/25 09:06:34;;;;;;;41.90;34.97;;;7.20;63.90;;;;;;5035440;28;20849;-79
2024/02/25 09:09:19;;;;;;;37.50;32.78;;;7.30;64.00;;;;;;5030550;28;20162;-78
2024/02/25 09:12:04;;;;;;;33.63;29.40;;;7.40;64.10;;;;;;5026944;28;20044;-78
2024/02/25 09:14:49;;;;;;;31.63;28.13;;;7.40;64.00;;;;;;5032555;28;20499;-78
2024/02/25 09:17:33;;;;;;;29.95;26.73;;;7.50;64.00;;;;;;5027034;28;20098;-79
2024/02/25 09:20:18;;;;;;;31.30;26.95;;;7.60;64.00;;;;;;5035270;28;20589;-79
2024/02/25 09:23:04;;;;;;;29.35;25.60;;;7.70;64.10;;;;;;5010529;28;20143;-78
2024/02/25 09:25:49;;;;;;;26.67;23.95;;;7.80;64.10;;;;;;5025380;28;20673;-79
2024/02/25 09:28:34;;;;;;;33.58;29.35;;;7.90;64.10;;;;;;5029413;28;20681;-77
2024/02/25 09:31:19;;;;;;;53.05;44.83;;;8.00;64.20;;;;;;5020439;28;20048;-78
2024/02/25 09:34:04;;;;;;;51.45;43.75;;;8.10;64.40;;;;;;5021399;28;20047;-78
2024/02/25 09:36:50;;;;;;;45.85;40.45;;;8.30;65.10;;;;;;5021769;28;20072;-77
2024/02/25 09:39:34;;;;;;;43.40;34.00;;;8.50;65.50;;;;;;5025571;28;20052;-77
2024/02/25 09:42:21;;;;;;;39.55;32.88;;;8.60;65.50;;;;;;5022274;28;20128;-78
2024/02/25 09:45:08;;;;;;;36.55;29.88;;;8.70;65.70;;;;;;5020449;28;20057;-79
2024/02/25 09:47:52;;;;;;;34.63;28.90;;;8.90;66.00;;;;;;5026608;28;20040;-78
2024/02/25 09:50:39;;;;;;;30.15;24.75;;;9.00;66.00;;;;;;5029080;28;20048;-78
2024/02/25 09:53:25;;;;;;;32.03;24.95;;;9.10;66.00;;;;;;5030670;28;20175;-78
2024/02/25 09:56:09;;;;;;;27.80;23.92;;;9.20;66.10;;;;;;5031137;28;20450;-78
2024/02/25 09:58:54;;;;;;;26.08;23.40;;;9.30;66.10;;;;;;5014606;28;20512;-79
2024/02/25 10:01:38;;;;;;;25.13;20.58;;;9.40;66.60;;;;;;5023770;28;20507;-79
2024/02/25 10:04:25;;;;;;;23.23;19.75;;;9.50;66.10;;;;;;5029868;28;20052;-78
2024/02/25 10:07:14;;;;;;;23.40;19.08;;;9.60;66.10;;;;;;5023967;28;20056;-78
2024/02/25 10:09:59;;;;;;;23.00;17.25;;;9.60;66.00;;;;;;5033966;28;20501;-79
2024/02/25 10:12:43;;;;;;;19.52;16.77;;;9.70;66.00;;;;;;5024258;28;20523;-78
2024/02/25 10:15:28;;;;;;;17.40;14.38;;;9.70;66.00;;;;;;5019999;28;20087;-79
2024/02/25 10:18:12;;;;;;;17.30;13.65;;;9.70;65.90;;;;;;5038606;28;20044;-79
2024/02/25 10:21:07;;;;;;;16.20;13.52;;;9.80;66.00;;;;;;5034752;28;20116;-79
2024/02/25 10:23:55;;;;;;;17.27;13.13;;;9.80;66.00;;;;;;5031944;28;20391;-79
2024/02/25 10:26:39;;;;;;;13.77;12.30;;;9.80;66.00;;;;;;5023293;28;20040;-78
2024/02/25 10:29:24;;;;;;;20.42;11.93;;;9.80;66.00;;;;;;5032330;28;20056;-78
2024/02/25 10:32:08;;;;;;;15.35;12.50;;;9.80;66.00;;;;;;5022035;28;20423;-78
2024/02/25 10:34:56;;;;;;;16.40;11.25;;;9.80;66.00;;;;;;5021099;28;20047;-78
2024/02/25 10:37:40;;;;;;;13.32;10.25;;;9.80;66.00;;;;;;5034123;28;20047;-78
2024/02/25 10:40:25;;;;;;;11.30;9.45;;;9.80;66.00;;;;;;5029740;28;20044;-78
2024/02/25 10:43:13;;;;;;;13.52;10.02;;;9.80;65.90;;;;;;5023931;28;20041;-78
2024/02/25 10:46:04;;;;;;;12.23;9.27;;;9.70;65.70;;;;;;5023134;28;20060;-78
2024/02/25 10:48:49;;;;;;;10.95;9.32;;;9.80;65.80;;;;;;5039769;28;20040;-79
2024/02/25 10:51:34;;;;;;;11.65;8.65;;;9.80;65.80;;;;;;5031773;28;20048;-78
2024/02/25 10:54:20;;;;;;;12.50;8.23;;;9.80;65.70;;;;;;5041345;28;20048;-78
2024/02/25 10:57:06;;;;;;;10.18;7.95;;;9.90;65.80;;;;;;5029591;28;20145;-79
2024/02/25 10:59:51;;;;;;;11.30;7.32;;;9.90;65.70;;;;;;5042423;28;20544;-78
2024/02/25 11:02:36;;;;;;;11.35;7.72;;;10.00;65.80;;;;;;5040668;28;20059;-79
2024/02/25 11:05:20;;;;;;;10.10;7.05;;;10.00;65.70;;;;;;5037832;28;20610;-79
2024/02/25 11:08:09;;;;;;;10.40;6.50;;;10.10;65.80;;;;;;5039041;28;20118;-79
2024/02/25 11:10:57;;;;;;;7.78;6.45;;;10.10;65.70;;;;;;5037353;28;20571;-78
2024/02/25 11:13:44;;;;;;;8.52;6.38;;;10.20;65.70;;;;;;5038996;28;20044;-78
2024/02/25 11:16:39;;;;;;;8.10;6.15;;;10.20;65.70;;;;;;5035617;28;20040;-78
2024/02/25 11:19:23;;;;;;;7.38;5.88;;;10.30;65.70;;;;;;5034986;28;20055;-77
2024/02/25 11:22:08;;;;;;;10.52;6.18;;;10.40;65.80;;;;;;5035427;28;20151;-77
2024/02/25 11:24:52;;;;;;;10.13;5.00;;;10.40;65.70;;;;;;5038452;28;20067;-77
2024/02/25 11:28:09;;;;;;;8.20;5.53;;;10.40;65.60;;;;;;5034839;28;20330;-77
2024/02/25 11:30:55;;;;;;;9.02;4.97;;;10.50;65.70;;;;;;5032078;28;20040;-78
2024/02/25 11:33:41;;;;;;;10.68;4.60;;;10.50;65.60;;;;;;5035382;28;20102;-77
2024/02/25 11:36:27;;;;;;;9.27;4.93;;;10.60;65.70;;;;;;5034276;28;20534;-77
2024/02/25 11:39:12;;;;;;;6.20;4.28;;;10.60;65.60;;;;;;5029871;28;20046;-77
2024/02/25 11:42:01;;;;;;;6.75;4.10;;;10.60;65.60;;;;;;5032060;28;20250;-77
2024/02/25 11:44:46;;;;;;;9.65;4.88;;;10.60;65.60;;;;;;5032241;28;20047;-77
2024/02/25 11:47:30;;;;;;;8.23;4.55;;;10.60;65.60;;;;;;5046082;28;20263;-77
2024/02/25 11:50:14;;;;;;;8.25;4.55;;;10.60;65.60;;;;;;5032094;28;20044;-77
2024/02/25 11:53:02;;;;;;;9.98;4.63;;;10.60;65.80;;;;;;5030958;28;20040;-77
2024/02/25 11:55:47;;;;;;;6.38;4.15;;;10.70;66.10;;;;;;5032058;28;20155;-77
2024/02/25 11:58:32;;;;;;;8.77;4.63;;;10.70;66.20;;;;;;5036861;28;20047;-78
2024/02/25 12:01:16;;;;;;;6.30;3.47;;;10.80;66.50;;;;;;5041976;28;20048;-78
2024/02/25 12:04:02;;;;;;;8.50;3.80;;;10.80;66.50;;;;;;5020793;28;20065;-77
2024/02/25 12:06:47;;;;;;;6.43;3.60;;;10.90;66.70;;;;;;5038210;28;20139;-77
2024/02/25 12:09:32;;;;;;;14.50;4.78;;;10.90;66.70;;;;;;5020474;28;20065;-77
2024/02/25 12:12:17;;;;;;;6.30;3.45;;;10.90;66.70;;;;;;5035250;28;20095;-77
2024/02/25 12:15:02;;;;;;;9.57;3.70;;;10.90;66.80;;;;;;5033973;28;20084;-77
2024/02/25 12:17:47;;;;;;;12.20;4.45;;;11.00;67.00;;;;;;5034231;28;20044;-77
2024/02/25 12:20:31;;;;;;;8.02;3.38;;;11.00;67.00;;;;;;5029566;28;20471;-77
2024/02/25 12:23:18;;;;;;;14.02;3.97;;;11.00;67.00;;;;;;5036692;28;20124;-77
2024/02/25 12:26:04;;;;;;;14.68;3.90;;;11.00;67.00;;;;;;5032952;28;20043;-77
2024/02/25 12:28:49;;;;;;;10.27;3.65;;;11.00;67.10;;;;;;5029546;28;20043;-78
2024/02/25 12:31:34;;;;;;;7.85;3.35;;;11.00;67.10;;;;;;5034617;28;20047;-78
2024/02/25 12:34:19;;;;;;;10.98;4.10;;;11.00;67.20;;;;;;5037124;28;20048;-77
2024/02/25 12:37:04;;;;;;;9.75;3.90;;;11.00;67.30;;;;;;5033593;28;20720;-78
2024/02/25 12:39:49;;;;;;;12.48;4.53;;;11.00;67.50;;;;;;5033558;28;20570;-78
2024/02/25 12:42:34;;;;;;;10.23;4.22;;;11.10;67.70;;;;;;5043844;28;20071;-79
2024/02/25 12:45:19;;;;;;;11.70;4.60;;;11.10;67.70;;;;;;5028338;28;20076;-77
2024/02/25 12:48:04;;;;;;;11.20;5.10;;;11.20;68.00;;;;;;5035932;28;20699;-77
2024/02/25 12:50:49;;;;;;;10.55;5.00;;;11.20;68.20;;;;;;5027815;28;20052;-80
2024/02/25 12:53:34;;;;;;;12.30;6.22;;;11.30;68.30;;;;;;5033373;28;20113;-79
2024/02/25 12:56:18;;;;;;;11.20;5.60;;;11.30;68.80;;;;;;5035515;28;20075;-79
2024/02/25 12:59:10;;;;;;;7.95;5.40;;;11.40;68.80;;;;;;5027428;28;20087;-79
2024/02/25 13:01:55;;;;;;;9.98;3.40;;;11.50;69.10;;;;;;5027310;28;20047;-79
2024/02/25 13:04:39;;;;;;;7.38;3.15;;;11.50;69.10;;;;;;5033101;28;20399;-79
2024/02/25 13:07:24;;;;;;;9.32;3.55;;;11.50;68.70;;;;;;5035423;28;20052;-79
2024/02/25 13:10:10;;;;;;;9.70;4.40;;;11.40;68.40;;;;;;5035452;28;20044;-78
2024/02/25 13:12:54;;;;;;;7.43;3.53;;;11.30;68.30;;;;;;5020466;28;20048;-79
2024/02/25 13:15:39;;;;;;;12.00;3.88;;;11.30;68.50;;;;;;5021858;28;20542;-79
2024/02/25 13:18:24;;;;;;;8.40;3.70;;;11.20;68.30;;;;;;5028369;28;20043;-79
2024/02/25 13:21:09;;;;;;;10.38;3.00;;;11.20;68.30;;;;;;5033389;28;20036;-79
2024/02/25 13:23:54;;;;;;;7.70;4.28;;;11.20;68.30;;;;;;5026502;28;20071;-78
2024/02/25 13:26:39;;;;;;;7.18;3.25;;;11.20;68.30;;;;;;5035837;28;20040;-80
2024/02/25 13:29:25;;;;;;;6.38;3.03;;;11.20;68.20;;;;;;5019034;28;20110;-78
2024/02/25 13:32:09;;;;;;;6.20;2.80;;;11.20;68.20;;;;;;5033843;28;20055;-79
2024/02/25 13:34:55;;;;;;;9.50;3.88;;;11.20;68.10;;;;;;5020837;28;20039;-78
2024/02/25 13:37:39;;;;;;;6.10;3.05;;;11.20;68.00;;;;;;5035339;28;20098;-80
2024/02/25 13:40:24;;;;;;;7.65;3.53;;;11.30;68.10;;;;;;5023515;28;20060;-78
2024/02/25 13:43:08;;;;;;;8.13;3.80;;;11.30;68.00;;;;;;5033931;28;20087;-78
2024/02/25 13:45:53;;;;;;;6.97;2.80;;;11.40;68.10;;;;;;5031706;28;20060;-78
2024/02/25 13:48:38;;;;;;;5.57;3.10;;;11.40;68.00;;;;;;5037381;28;20087;-78
2024/02/25 13:51:23;;;;;;;7.53;3.20;;;11.50;68.00;;;;;;5032066;28;20139;-78
2024/02/25 13:54:08;;;;;;;5.38;2.95;;;11.50;67.90;;;;;;5031606;28;20052;-78
2024/02/25 13:56:53;;;;;;;7.28;3.42;;;11.50;67.80;;;;;;5036294;28;20098;-78
2024/02/25 13:59:38;;;;;;;6.35;3.25;;;11.60;67.90;;;;;;5034115;28;20163;-79
2024/02/25 14:02:23;;;;;;;6.75;3.05;;;11.60;67.90;;;;;;5034913;28;20151;-78
2024/02/25 14:05:08;;;;;;;6.75;3.00;;;11.60;67.80;;;;;;5039979;28;20502;-79
2024/02/25 14:07:53;;;;;;;5.45;3.03;;;11.60;67.70;;;;;;5034828;28;20090;-80
2024/02/25 14:10:40;;;;;;;8.88;4.68;;;11.60;67.70;;;;;;5037162;28;20097;-79
2024/02/25 14:13:25;;;;;;;6.30;3.65;;;11.50;67.50;;;;;;5040777;28;20227;-79
2024/02/25 14:16:09;;;;;;;7.40;2.83;;;11.50;67.50;;;;;;5033516;28;20217;-79
2024/02/25 14:18:54;;;;;;;5.13;2.85;;;11.50;67.50;;;;;;5034466;28;20075;-79
2024/02/25 14:21:38;;;;;;;5.15;3.00;;;11.50;67.50;;;;;;5035212;28;20583;-79
2024/02/25 14:24:25;;;;;;;5.25;2.75;;;11.50;67.50;;;;;;5034306;28;20512;-79